sensor_id;sensor_type;location;lat;lon;timestamp;P1;durP1;ratioP1;P2;durP2;ratioP2
5458;SDS011;2752;49.992;8.422;2024-01-16T00:00:24;2.47;;;1.20;;
5458;SDS011;2752;49.992;8.422;2024-01-16T00:02:52;3.53;;;1.90;;
5458;SDS011;2752;49.992;8.422;2024-01-16T00:05:20;2.70;;;1.83;;
5458;SDS011;2752;49.992;8.422;2024-01-16T00:07:47;13.17;;;1.50;;
5458;SDS011;2752;49.992;8.422;2024-01-16T00:10:14;2.00;;;1.27;;
5458;SDS011;2752;49.992;8.422;2024-01-16T00:12:41;2.57;;;1.50;;
5458;SDS011;2752;49.992;8.422;2024-01-16T00:15:08;4.53;;;1.90;;
5458;SDS011;2752;49.992;8.422;2024-01-16T00:17:35;5.77;;;1.57;;
5458;SDS011;2752;49.992;8.422;2024-01-16T00:20:02;3.20;;;1.30;;
5458;SDS011;2752;49.992;8.422;2024-01-16T00:22:31;8.00;;;2.10;;
5458;SDS011;2752;49.992;8.422;2024-01-16T00:24:58;4.00;;;1.30;;
5458;SDS011;2752;49.992;8.422;2024-01-16T00:27:25;1.80;;;1.47;;
5458;SDS011;2752;49.992;8.422;2024-01-16T00:29:52;3.33;;;1.60;;
5458;SDS011;2752;49.992;8.422;2024-01-16T00:32:19;2.93;;;1.93;;
5458;SDS011;2752;49.992;8.422;2024-01-16T00:34:47;6.00;;;1.63;;
5458;SDS011;2752;49.992;8.422;2024-01-16T00:37:14;2.00;;;1.80;;
5458;SDS011;2752;49.992;8.422;2024-01-16T00:39:42;3.27;;;2.23;;
5458;SDS011;2752;49.992;8.422;2024-01-16T00:42:09;6.77;;;1.90;;
5458;SDS011;2752;49.992;8.422;2024-01-16T00:44:36;1.53;;;1.33;;
5458;SDS011;2752;49.992;8.422;2024-01-16T00:47:03;4.60;;;2.60;;
5458;SDS011;2752;49.992;8.422;2024-01-16T00:49:31;14.63;;;2.10;;
5458;SDS011;2752;49.992;8.422;2024-01-16T00:51:58;1.53;;;1.20;;
5458;SDS011;2752;49.992;8.422;2024-01-16T00:54:25;2.60;;;1.80;;
5458;SDS011;2752;49.992;8.422;2024-01-16T00:56:53;4.97;;;1.40;;
5458;SDS011;2752;49.992;8.422;2024-01-16T00:59:24;6.20;;;1.70;;
5458;SDS011;2752;49.992;8.422;2024-01-16T01:01:51;2.10;;;1.67;;
5458;SDS011;2752;49.992;8.422;2024-01-16T01:04:18;3.33;;;1.90;;
5458;SDS011;2752;49.992;8.422;2024-01-16T01:06:45;6.70;;;1.73;;
5458;SDS011;2752;49.992;8.422;2024-01-16T01:09:12;4.80;;;2.30;;
5458;SDS011;2752;49.992;8.422;2024-01-16T01:11:39;4.83;;;1.57;;
5458;SDS011;2752;49.992;8.422;2024-01-16T01:14:07;7.30;;;1.70;;
5458;SDS011;2752;49.992;8.422;2024-01-16T01:16:34;3.47;;;1.97;;
5458;SDS011;2752;49.992;8.422;2024-01-16T01:19:01;2.10;;;1.20;;
5458;SDS011;2752;49.992;8.422;2024-01-16T01:21:29;3.17;;;1.87;;
5458;SDS011;2752;49.992;8.422;2024-01-16T01:23:56;2.83;;;2.00;;
5458;SDS011;2752;49.992;8.422;2024-01-16T01:26:23;3.90;;;2.00;;
5458;SDS011;2752;49.992;8.422;2024-01-16T01:28:50;5.93;;;2.43;;
5458;SDS011;2752;49.992;8.422;2024-01-16T01:31:18;2.80;;;2.20;;
5458;SDS011;2752;49.992;8.422;2024-01-16T01:33:45;2.53;;;1.80;;
5458;SDS011;2752;49.992;8.422;2024-01-16T01:36:12;4.87;;;2.23;;
5458;SDS011;2752;49.992;8.422;2024-01-16T01:38:39;6.60;;;2.47;;
5458;SDS011;2752;49.992;8.422;2024-01-16T01:41:06;7.23;;;1.90;;
5458;SDS011;2752;49.992;8.422;2024-01-16T01:43:36;4.70;;;1.87;;
5458;SDS011;2752;49.992;8.422;2024-01-16T01:46:08;8.50;;;2.27;;
5458;SDS011;2752;49.992;8.422;2024-01-16T01:48:36;4.07;;;2.53;;
5458;SDS011;2752;49.992;8.422;2024-01-16T01:51:04;2.93;;;1.80;;
5458;SDS011;2752;49.992;8.422;2024-01-16T01:53:31;7.17;;;2.80;;
5458;SDS011;2752;49.992;8.422;2024-01-16T01:55:59;2.40;;;1.67;;
5458;SDS011;2752;49.992;8.422;2024-01-16T01:58:28;5.43;;;2.47;;
5458;SDS011;2752;49.992;8.422;2024-01-16T02:00:56;2.60;;;1.50;;
5458;SDS011;2752;49.992;8.422;2024-01-16T02:03:23;2.57;;;2.33;;
5458;SDS011;2752;49.992;8.422;2024-01-16T02:05:53;5.53;;;2.50;;
5458;SDS011;2752;49.992;8.422;2024-01-16T02:08:20;18.07;;;2.53;;
5458;SDS011;2752;49.992;8.422;2024-01-16T02:10:47;4.43;;;1.40;;
5458;SDS011;2752;49.992;8.422;2024-01-16T02:13:16;5.00;;;2.30;;
5458;SDS011;2752;49.992;8.422;2024-01-16T02:15:45;4.27;;;2.17;;
5458;SDS011;2752;49.992;8.422;2024-01-16T02:18:12;6.27;;;2.47;;
5458;SDS011;2752;49.992;8.422;2024-01-16T02:20:39;5.07;;;2.20;;
5458;SDS011;2752;49.992;8.422;2024-01-16T02:23:07;5.40;;;2.53;;
5458;SDS011;2752;49.992;8.422;2024-01-16T02:25:38;4.10;;;2.23;;
5458;SDS011;2752;49.992;8.422;2024-01-16T02:28:05;3.13;;;2.13;;
5458;SDS011;2752;49.992;8.422;2024-01-16T02:30:32;3.77;;;1.83;;
5458;SDS011;2752;49.992;8.422;2024-01-16T02:32:59;6.93;;;2.20;;
5458;SDS011;2752;49.992;8.422;2024-01-16T02:35:26;5.87;;;2.80;;
5458;SDS011;2752;49.992;8.422;2024-01-16T02:37:53;4.80;;;2.40;;
5458;SDS011;2752;49.992;8.422;2024-01-16T02:40:20;4.60;;;2.40;;
5458;SDS011;2752;49.992;8.422;2024-01-16T02:42:48;2.23;;;1.77;;
5458;SDS011;2752;49.992;8.422;2024-01-16T02:45:15;7.60;;;2.33;;
5458;SDS011;2752;49.992;8.422;2024-01-16T02:47:42;6.00;;;2.07;;
5458;SDS011;2752;49.992;8.422;2024-01-16T02:50:09;6.47;;;2.37;;
5458;SDS011;2752;49.992;8.422;2024-01-16T02:52:36;7.50;;;1.90;;
5458;SDS011;2752;49.992;8.422;2024-01-16T02:55:04;3.70;;;1.73;;
5458;SDS011;2752;49.992;8.422;2024-01-16T02:57:31;5.60;;;2.67;;
5458;SDS011;2752;49.992;8.422;2024-01-16T02:59:59;14.97;;;2.83;;
5458;SDS011;2752;49.992;8.422;2024-01-16T03:02:26;7.40;;;2.53;;
5458;SDS011;2752;49.992;8.422;2024-01-16T03:04:53;3.70;;;1.97;;
5458;SDS011;2752;49.992;8.422;2024-01-16T03:07:20;5.60;;;3.37;;
5458;SDS011;2752;49.992;8.422;2024-01-16T03:09:47;7.13;;;2.30;;
5458;SDS011;2752;49.992;8.422;2024-01-16T03:12:14;3.23;;;2.00;;
5458;SDS011;2752;49.992;8.422;2024-01-16T03:14:42;6.43;;;4.10;;
5458;SDS011;2752;49.992;8.422;2024-01-16T03:17:11;2.43;;;2.00;;
5458;SDS011;2752;49.992;8.422;2024-01-16T03:19:38;5.47;;;2.07;;
5458;SDS011;2752;49.992;8.422;2024-01-16T03:22:05;8.50;;;2.80;;
5458;SDS011;2752;49.992;8.422;2024-01-16T03:24:32;3.63;;;1.97;;
5458;SDS011;2752;49.992;8.422;2024-01-16T03:26:59;4.67;;;2.03;;
5458;SDS011;2752;49.992;8.422;2024-01-16T03:29:26;4.83;;;2.27;;
5458;SDS011;2752;49.992;8.422;2024-01-16T03:31:53;4.73;;;2.20;;
5458;SDS011;2752;49.992;8.422;2024-01-16T03:34:23;2.70;;;1.93;;
5458;SDS011;2752;49.992;8.422;2024-01-16T03:36:50;6.20;;;2.03;;
5458;SDS011;2752;49.992;8.422;2024-01-16T03:39:17;10.00;;;2.37;;
5458;SDS011;2752;49.992;8.422;2024-01-16T03:41:44;3.90;;;1.93;;
5458;SDS011;2752;49.992;8.422;2024-01-16T03:44:11;11.13;;;2.23;;
5458;SDS011;2752;49.992;8.422;2024-01-16T03:46:38;4.73;;;1.97;;
5458;SDS011;2752;49.992;8.422;2024-01-16T03:49:05;1.90;;;1.70;;
5458;SDS011;2752;49.992;8.422;2024-01-16T03:51:33;8.47;;;2.70;;
5458;SDS011;2752;49.992;8.422;2024-01-16T03:54:00;9.23;;;2.60;;
5458;SDS011;2752;49.992;8.422;2024-01-16T03:56:28;13.40;;;2.07;;
5458;SDS011;2752;49.992;8.422;2024-01-16T03:58:55;5.40;;;2.50;;
5458;SDS011;2752;49.992;8.422;2024-01-16T04:01:29;4.07;;;2.13;;
5458;SDS011;2752;49.992;8.422;2024-01-16T04:03:56;4.60;;;2.60;;
5458;SDS011;2752;49.992;8.422;2024-01-16T04:06:23;3.97;;;2.47;;
5458;SDS011;2752;49.992;8.422;2024-01-16T04:08:52;7.93;;;2.30;;
5458;SDS011;2752;49.992;8.422;2024-01-16T04:11:19;20.07;;;3.60;;
5458;SDS011;2752;49.992;8.422;2024-01-16T04:13:46;4.57;;;2.20;;
5458;SDS011;2752;49.992;8.422;2024-01-16T04:16:13;2.07;;;1.80;;
5458;SDS011;2752;49.992;8.422;2024-01-16T04:18:41;4.37;;;1.93;;
5458;SDS011;2752;49.992;8.422;2024-01-16T04:21:08;3.20;;;1.97;;
5458;SDS011;2752;49.992;8.422;2024-01-16T04:23:35;6.33;;;2.50;;
5458;SDS011;2752;49.992;8.422;2024-01-16T04:26:04;4.10;;;1.87;;
5458;SDS011;2752;49.992;8.422;2024-01-16T04:28:31;7.17;;;2.20;;
5458;SDS011;2752;49.992;8.422;2024-01-16T04:30:58;3.90;;;1.77;;
5458;SDS011;2752;49.992;8.422;2024-01-16T04:33:25;4.03;;;1.80;;
5458;SDS011;2752;49.992;8.422;2024-01-16T04:35:52;3.73;;;2.70;;
5458;SDS011;2752;49.992;8.422;2024-01-16T04:38:19;3.17;;;2.37;;
5458;SDS011;2752;49.992;8.422;2024-01-16T04:40:46;5.83;;;2.10;;
5458;SDS011;2752;49.992;8.422;2024-01-16T04:43:14;5.10;;;2.10;;
5458;SDS011;2752;49.992;8.422;2024-01-16T04:45:42;6.43;;;2.97;;
5458;SDS011;2752;49.992;8.422;2024-01-16T04:48:09;20.33;;;2.50;;
5458;SDS011;2752;49.992;8.422;2024-01-16T04:50:36;8.73;;;2.33;;
5458;SDS011;2752;49.992;8.422;2024-01-16T04:53:03;6.60;;;2.87;;
5458;SDS011;2752;49.992;8.422;2024-01-16T04:55:30;4.40;;;2.20;;
5458;SDS011;2752;49.992;8.422;2024-01-16T04:57:58;5.10;;;2.63;;
5458;SDS011;2752;49.992;8.422;2024-01-16T05:00:26;6.93;;;2.07;;
5458;SDS011;2752;49.992;8.422;2024-01-16T05:02:53;3.93;;;2.30;;
5458;SDS011;2752;49.992;8.422;2024-01-16T05:05:20;5.00;;;1.93;;
5458;SDS011;2752;49.992;8.422;2024-01-16T05:07:47;4.50;;;2.40;;
5458;SDS011;2752;49.992;8.422;2024-01-16T05:10:14;4.57;;;2.50;;
5458;SDS011;2752;49.992;8.422;2024-01-16T05:12:41;3.03;;;1.90;;
5458;SDS011;2752;49.992;8.422;2024-01-16T05:15:08;15.27;;;1.83;;
5458;SDS011;2752;49.992;8.422;2024-01-16T05:17:39;7.13;;;3.30;;
5458;SDS011;2752;49.992;8.422;2024-01-16T05:20:06;3.40;;;2.03;;
5458;SDS011;2752;49.992;8.422;2024-01-16T05:22:33;7.93;;;2.77;;
5458;SDS011;2752;49.992;8.422;2024-01-16T05:25:00;8.30;;;2.43;;
5458;SDS011;2752;49.992;8.422;2024-01-16T05:27:27;5.53;;;2.33;;
5458;SDS011;2752;49.992;8.422;2024-01-16T05:29:54;13.20;;;2.50;;
5458;SDS011;2752;49.992;8.422;2024-01-16T05:32:21;7.03;;;3.13;;
5458;SDS011;2752;49.992;8.422;2024-01-16T05:34:50;5.00;;;2.60;;
5458;SDS011;2752;49.992;8.422;2024-01-16T05:37:17;10.07;;;2.87;;
5458;SDS011;2752;49.992;8.422;2024-01-16T05:39:44;10.37;;;2.57;;
5458;SDS011;2752;49.992;8.422;2024-01-16T05:42:11;5.33;;;2.13;;
5458;SDS011;2752;49.992;8.422;2024-01-16T05:44:38;18.07;;;2.40;;
5458;SDS011;2752;49.992;8.422;2024-01-16T05:47:05;13.20;;;2.20;;
5458;SDS011;2752;49.992;8.422;2024-01-16T05:49:32;7.57;;;1.90;;
5458;SDS011;2752;49.992;8.422;2024-01-16T05:52:00;3.67;;;1.70;;
5458;SDS011;2752;49.992;8.422;2024-01-16T05:54:27;25.13;;;2.67;;
5458;SDS011;2752;49.992;8.422;2024-01-16T05:56:54;2.37;;;1.97;;
5458;SDS011;2752;49.992;8.422;2024-01-16T05:59:21;6.57;;;2.03;;
5458;SDS011;2752;49.992;8.422;2024-01-16T06:01:48;9.50;;;2.27;;
5458;SDS011;2752;49.992;8.422;2024-01-16T06:04:15;6.50;;;2.50;;
5458;SDS011;2752;49.992;8.422;2024-01-16T06:06:43;6.97;;;2.10;;
5458;SDS011;2752;49.992;8.422;2024-01-16T06:09:13;9.53;;;3.37;;
5458;SDS011;2752;49.992;8.422;2024-01-16T06:11:41;7.33;;;3.20;;
5458;SDS011;2752;49.992;8.422;2024-01-16T06:14:08;3.27;;;2.37;;
5458;SDS011;2752;49.992;8.422;2024-01-16T06:16:37;5.00;;;2.23;;
5458;SDS011;2752;49.992;8.422;2024-01-16T06:19:04;9.03;;;2.60;;
5458;SDS011;2752;49.992;8.422;2024-01-16T06:21:33;7.30;;;2.70;;
5458;SDS011;2752;49.992;8.422;2024-01-16T06:24:00;9.40;;;2.33;;
5458;SDS011;2752;49.992;8.422;2024-01-16T06:26:28;5.20;;;2.30;;
5458;SDS011;2752;49.992;8.422;2024-01-16T06:28:56;5.43;;;2.40;;
5458;SDS011;2752;49.992;8.422;2024-01-16T06:31:23;6.50;;;2.77;;
5458;SDS011;2752;49.992;8.422;2024-01-16T06:33:51;7.17;;;3.10;;
5458;SDS011;2752;49.992;8.422;2024-01-16T06:36:18;5.90;;;3.33;;
5458;SDS011;2752;49.992;8.422;2024-01-16T06:38:45;10.80;;;3.17;;
5458;SDS011;2752;49.992;8.422;2024-01-16T06:41:12;7.77;;;3.73;;
5458;SDS011;2752;49.992;8.422;2024-01-16T06:43:40;2.77;;;1.70;;
5458;SDS011;2752;49.992;8.422;2024-01-16T06:46:07;1.67;;;1.57;;
5458;SDS011;2752;49.992;8.422;2024-01-16T06:48:35;5.37;;;2.80;;
5458;SDS011;2752;49.992;8.422;2024-01-16T06:51:02;4.47;;;2.20;;
5458;SDS011;2752;49.992;8.422;2024-01-16T06:53:29;4.90;;;2.50;;
5458;SDS011;2752;49.992;8.422;2024-01-16T06:55:56;5.23;;;2.30;;
5458;SDS011;2752;49.992;8.422;2024-01-16T06:58:23;3.57;;;2.30;;
5458;SDS011;2752;49.992;8.422;2024-01-16T07:00:51;15.37;;;3.43;;
5458;SDS011;2752;49.992;8.422;2024-01-16T07:03:18;16.07;;;4.17;;
5458;SDS011;2752;49.992;8.422;2024-01-16T07:05:45;6.03;;;2.90;;
5458;SDS011;2752;49.992;8.422;2024-01-16T07:08:12;6.80;;;3.27;;
5458;SDS011;2752;49.992;8.422;2024-01-16T07:10:39;5.83;;;2.80;;
5458;SDS011;2752;49.992;8.422;2024-01-16T07:13:06;8.07;;;3.67;;
5458;SDS011;2752;49.992;8.422;2024-01-16T07:15:33;7.17;;;3.10;;
5458;SDS011;2752;49.992;8.422;2024-01-16T07:18:02;4.97;;;2.83;;
5458;SDS011;2752;49.992;8.422;2024-01-16T07:20:29;9.90;;;4.53;;
5458;SDS011;2752;49.992;8.422;2024-01-16T07:22:56;6.33;;;2.70;;
5458;SDS011;2752;49.992;8.422;2024-01-16T07:25:23;8.67;;;3.37;;
5458;SDS011;2752;49.992;8.422;2024-01-16T07:27:50;3.90;;;2.20;;
5458;SDS011;2752;49.992;8.422;2024-01-16T07:30:17;6.93;;;3.10;;
5458;SDS011;2752;49.992;8.422;2024-01-16T07:32:44;8.03;;;2.80;;
5458;SDS011;2752;49.992;8.422;2024-01-16T07:35:13;3.33;;;2.23;;
5458;SDS011;2752;49.992;8.422;2024-01-16T07:37:39;8.83;;;3.80;;
5458;SDS011;2752;49.992;8.422;2024-01-16T07:40:07;8.57;;;3.20;;
5458;SDS011;2752;49.992;8.422;2024-01-16T07:42:34;7.87;;;3.53;;
5458;SDS011;2752;49.992;8.422;2024-01-16T07:45:01;13.83;;;3.20;;
5458;SDS011;2752;49.992;8.422;2024-01-16T07:47:29;14.17;;;4.80;;
5458;SDS011;2752;49.992;8.422;2024-01-16T07:49:57;4.60;;;3.00;;
5458;SDS011;2752;49.992;8.422;2024-01-16T07:52:26;8.40;;;3.47;;
5458;SDS011;2752;49.992;8.422;2024-01-16T07:54:53;9.70;;;4.03;;
5458;SDS011;2752;49.992;8.422;2024-01-16T07:57:21;5.90;;;3.97;;
5458;SDS011;2752;49.992;8.422;2024-01-16T07:59:48;15.33;;;4.33;;
5458;SDS011;2752;49.992;8.422;2024-01-16T08:02:15;5.60;;;3.13;;
5458;SDS011;2752;49.992;8.422;2024-01-16T08:04:42;6.07;;;3.67;;
5458;SDS011;2752;49.992;8.422;2024-01-16T08:07:09;8.23;;;4.17;;
5458;SDS011;2752;49.992;8.422;2024-01-16T08:09:37;10.80;;;4.00;;
5458;SDS011;2752;49.992;8.422;2024-01-16T08:12:04;10.20;;;4.60;;
5458;SDS011;2752;49.992;8.422;2024-01-16T08:14:32;9.10;;;5.17;;
5458;SDS011;2752;49.992;8.422;2024-01-16T08:16:59;6.97;;;4.67;;
5458;SDS011;2752;49.992;8.422;2024-01-16T08:19:26;6.13;;;4.37;;
5458;SDS011;2752;49.992;8.422;2024-01-16T08:21:53;12.30;;;4.97;;
5458;SDS011;2752;49.992;8.422;2024-01-16T08:24:20;13.60;;;4.17;;
5458;SDS011;2752;49.992;8.422;2024-01-16T08:26:49;9.67;;;4.10;;
5458;SDS011;2752;49.992;8.422;2024-01-16T08:29:16;15.13;;;4.80;;
5458;SDS011;2752;49.992;8.422;2024-01-16T08:31:43;28.37;;;5.43;;
5458;SDS011;2752;49.992;8.422;2024-01-16T08:34:10;10.13;;;3.63;;
5458;SDS011;2752;49.992;8.422;2024-01-16T08:36:37;8.10;;;4.07;;
5458;SDS011;2752;49.992;8.422;2024-01-16T08:39:05;12.70;;;4.33;;
5458;SDS011;2752;49.992;8.422;2024-01-16T08:41:32;10.93;;;5.40;;
5458;SDS011;2752;49.992;8.422;2024-01-16T08:44:00;25.57;;;5.93;;
5458;SDS011;2752;49.992;8.422;2024-01-16T08:46:27;7.30;;;3.80;;
5458;SDS011;2752;49.992;8.422;2024-01-16T08:48:54;18.20;;;4.90;;
5458;SDS011;2752;49.992;8.422;2024-01-16T08:51:22;12.33;;;5.23;;
5458;SDS011;2752;49.992;8.422;2024-01-16T08:53:51;8.90;;;4.20;;
5458;SDS011;2752;49.992;8.422;2024-01-16T08:56:18;7.53;;;2.90;;
5458;SDS011;2752;49.992;8.422;2024-01-16T08:58:45;10.57;;;4.20;;
5458;SDS011;2752;49.992;8.422;2024-01-16T09:01:14;10.30;;;4.40;;
5458;SDS011;2752;49.992;8.422;2024-01-16T09:03:41;10.07;;;4.80;;
5458;SDS011;2752;49.992;8.422;2024-01-16T09:06:08;9.33;;;5.10;;
5458;SDS011;2752;49.992;8.422;2024-01-16T09:08:36;9.63;;;4.70;;
5458;SDS011;2752;49.992;8.422;2024-01-16T09:11:03;13.93;;;4.60;;
5458;SDS011;2752;49.992;8.422;2024-01-16T09:13:30;15.93;;;5.03;;
5458;SDS011;2752;49.992;8.422;2024-01-16T09:15:57;15.20;;;4.30;;
5458;SDS011;2752;49.992;8.422;2024-01-16T09:18:25;7.67;;;4.17;;
5458;SDS011;2752;49.992;8.422;2024-01-16T09:20:52;9.73;;;4.47;;
5458;SDS011;2752;49.992;8.422;2024-01-16T09:23:20;5.67;;;3.87;;
5458;SDS011;2752;49.992;8.422;2024-01-16T09:25:47;7.17;;;4.03;;
5458;SDS011;2752;49.992;8.422;2024-01-16T09:28:14;10.73;;;5.33;;
5458;SDS011;2752;49.992;8.422;2024-01-16T09:30:41;9.20;;;4.50;;
5458;SDS011;2752;49.992;8.422;2024-01-16T09:33:08;6.70;;;4.33;;
5458;SDS011;2752;49.992;8.422;2024-01-16T09:35:37;10.03;;;4.57;;
5458;SDS011;2752;49.992;8.422;2024-01-16T09:38:04;15.63;;;4.40;;
5458;SDS011;2752;49.992;8.422;2024-01-16T09:40:31;17.20;;;4.73;;
5458;SDS011;2752;49.992;8.422;2024-01-16T09:42:58;8.83;;;4.23;;
5458;SDS011;2752;49.992;8.422;2024-01-16T09:45:25;8.40;;;4.10;;
5458;SDS011;2752;49.992;8.422;2024-01-16T09:47:53;9.73;;;3.87;;
5458;SDS011;2752;49.992;8.422;2024-01-16T09:50:20;8.20;;;3.80;;
5458;SDS011;2752;49.992;8.422;2024-01-16T09:52:48;7.70;;;4.17;;
5458;SDS011;2752;49.992;8.422;2024-01-16T09:55:15;7.57;;;3.40;;
5458;SDS011;2752;49.992;8.422;2024-01-16T09:57:43;13.73;;;4.27;;
5458;SDS011;2752;49.992;8.422;2024-01-16T10:00:11;6.30;;;3.40;;
5458;SDS011;2752;49.992;8.422;2024-01-16T10:02:39;11.40;;;5.40;;
5458;SDS011;2752;49.992;8.422;2024-01-16T10:05:06;14.10;;;4.77;;
5458;SDS011;2752;49.992;8.422;2024-01-16T10:07:34;7.53;;;4.27;;
5458;SDS011;2752;49.992;8.422;2024-01-16T10:10:04;13.53;;;5.80;;
5458;SDS011;2752;49.992;8.422;2024-01-16T10:12:32;10.20;;;3.70;;
5458;SDS011;2752;49.992;8.422;2024-01-16T10:14:59;7.67;;;4.33;;
5458;SDS011;2752;49.992;8.422;2024-01-16T10:17:35;13.00;;;4.80;;
5458;SDS011;2752;49.992;8.422;2024-01-16T10:20:03;8.90;;;4.40;;
5458;SDS011;2752;49.992;8.422;2024-01-16T10:22:29;15.20;;;4.93;;
5458;SDS011;2752;49.992;8.422;2024-01-16T10:25:08;11.70;;;5.70;;
5458;SDS011;2752;49.992;8.422;2024-01-16T10:27:36;11.60;;;5.10;;
5458;SDS011;2752;49.992;8.422;2024-01-16T10:30:04;13.23;;;5.00;;
5458;SDS011;2752;49.992;8.422;2024-01-16T10:32:32;7.10;;;3.27;;
5458;SDS011;2752;49.992;8.422;2024-01-16T10:35:03;6.07;;;3.17;;
5458;SDS011;2752;49.992;8.422;2024-01-16T10:37:29;9.23;;;4.33;;
5458;SDS011;2752;49.992;8.422;2024-01-16T10:39:56;16.87;;;4.37;;
5458;SDS011;2752;49.992;8.422;2024-01-16T10:42:24;21.93;;;4.33;;
5458;SDS011;2752;49.992;8.422;2024-01-16T10:44:54;8.87;;;4.60;;
5458;SDS011;2752;49.992;8.422;2024-01-16T10:47:21;6.93;;;3.57;;
5458;SDS011;2752;49.992;8.422;2024-01-16T10:49:48;10.93;;;5.10;;
5458;SDS011;2752;49.992;8.422;2024-01-16T10:52:15;10.50;;;3.80;;
5458;SDS011;2752;49.992;8.422;2024-01-16T10:54:44;7.27;;;4.77;;
5458;SDS011;2752;49.992;8.422;2024-01-16T10:57:14;6.80;;;3.10;;
5458;SDS011;2752;49.992;8.422;2024-01-16T10:59:45;5.17;;;3.10;;
5458;SDS011;2752;49.992;8.422;2024-01-16T11:02:16;7.93;;;3.40;;
5458;SDS011;2752;49.992;8.422;2024-01-16T11:04:46;9.60;;;4.30;;
5458;SDS011;2752;49.992;8.422;2024-01-16T11:07:14;7.27;;;3.87;;
5458;SDS011;2752;49.992;8.422;2024-01-16T11:09:41;10.73;;;4.03;;
5458;SDS011;2752;49.992;8.422;2024-01-16T11:12:09;5.30;;;3.50;;
5458;SDS011;2752;49.992;8.422;2024-01-16T11:14:41;6.40;;;3.00;;
5458;SDS011;2752;49.992;8.422;2024-01-16T11:17:10;5.43;;;3.00;;
5458;SDS011;2752;49.992;8.422;2024-01-16T11:19:43;9.33;;;3.87;;
5458;SDS011;2752;49.992;8.422;2024-01-16T11:22:10;17.13;;;6.43;;
5458;SDS011;2752;49.992;8.422;2024-01-16T11:24:37;8.27;;;2.80;;
5458;SDS011;2752;49.992;8.422;2024-01-16T11:27:04;15.83;;;4.10;;
5458;SDS011;2752;49.992;8.422;2024-01-16T11:29:35;13.67;;;3.80;;
5458;SDS011;2752;49.992;8.422;2024-01-16T11:32:04;12.67;;;3.20;;
5458;SDS011;2752;49.992;8.422;2024-01-16T11:37:25;3.40;;;2.03;;
5458;SDS011;2752;49.992;8.422;2024-01-16T11:39:54;20.97;;;4.40;;
5458;SDS011;2752;49.992;8.422;2024-01-16T11:42:43;9.53;;;4.23;;
5458;SDS011;2752;49.992;8.422;2024-01-16T11:45:14;10.27;;;3.30;;
5458;SDS011;2752;49.992;8.422;2024-01-16T11:48:10;9.13;;;3.30;;
5458;SDS011;2752;49.992;8.422;2024-01-16T11:50:37;14.73;;;4.00;;
5458;SDS011;2752;49.992;8.422;2024-01-16T11:53:04;7.30;;;2.47;;
5458;SDS011;2752;49.992;8.422;2024-01-16T11:55:31;9.07;;;3.40;;
5458;SDS011;2752;49.992;8.422;2024-01-16T11:58:10;6.37;;;2.40;;
5458;SDS011;2752;49.992;8.422;2024-01-16T12:00:42;8.23;;;2.83;;
5458;SDS011;2752;49.992;8.422;2024-01-16T12:03:11;5.63;;;3.50;;
5458;SDS011;2752;49.992;8.422;2024-01-16T12:05:41;5.63;;;2.40;;
5458;SDS011;2752;49.992;8.422;2024-01-16T12:08:08;9.10;;;2.53;;
5458;SDS011;2752;49.992;8.422;2024-01-16T12:10:45;13.37;;;3.87;;
5458;SDS011;2752;49.992;8.422;2024-01-16T12:13:14;5.70;;;2.73;;
5458;SDS011;2752;49.992;8.422;2024-01-16T12:15:42;8.77;;;3.30;;
5458;SDS011;2752;49.992;8.422;2024-01-16T12:18:09;14.20;;;3.87;;
5458;SDS011;2752;49.992;8.422;2024-01-16T12:20:37;8.50;;;3.73;;
5458;SDS011;2752;49.992;8.422;2024-01-16T12:23:04;7.40;;;3.00;;
5458;SDS011;2752;49.992;8.422;2024-01-16T12:25:32;8.70;;;3.80;;
5458;SDS011;2752;49.992;8.422;2024-01-16T12:28:00;9.33;;;3.53;;
5458;SDS011;2752;49.992;8.422;2024-01-16T12:30:29;5.73;;;3.20;;
5458;SDS011;2752;49.992;8.422;2024-01-16T12:33:03;6.07;;;2.80;;
5458;SDS011;2752;49.992;8.422;2024-01-16T12:35:31;8.20;;;3.40;;
5458;SDS011;2752;49.992;8.422;2024-01-16T12:37:59;11.63;;;4.20;;
5458;SDS011;2752;49.992;8.422;2024-01-16T12:40:26;6.80;;;3.30;;
5458;SDS011;2752;49.992;8.422;2024-01-16T12:42:53;5.70;;;2.50;;
5458;SDS011;2752;49.992;8.422;2024-01-16T12:45:21;4.10;;;2.33;;
5458;SDS011;2752;49.992;8.422;2024-01-16T12:47:53;5.67;;;2.70;;
5458;SDS011;2752;49.992;8.422;2024-01-16T12:50:23;7.77;;;2.90;;
5458;SDS011;2752;49.992;8.422;2024-01-16T12:52:53;6.27;;;2.60;;
5458;SDS011;2752;49.992;8.422;2024-01-16T12:55:28;8.40;;;4.13;;
5458;SDS011;2752;49.992;8.422;2024-01-16T13:00:37;5.73;;;3.07;;
5458;SDS011;2752;49.992;8.422;2024-01-16T13:03:06;6.47;;;3.50;;
5458;SDS011;2752;49.992;8.422;2024-01-16T13:05:34;7.20;;;3.87;;
5458;SDS011;2752;49.992;8.422;2024-01-16T13:08:02;11.13;;;3.57;;
5458;SDS011;2752;49.992;8.422;2024-01-16T13:10:28;10.23;;;3.77;;
5458;SDS011;2752;49.992;8.422;2024-01-16T13:13:10;12.50;;;6.90;;
5458;SDS011;2752;49.992;8.422;2024-01-16T13:15:37;11.80;;;4.53;;
5458;SDS011;2752;49.992;8.422;2024-01-16T13:18:04;6.40;;;3.33;;
5458;SDS011;2752;49.992;8.422;2024-01-16T13:20:33;12.37;;;4.20;;
5458;SDS011;2752;49.992;8.422;2024-01-16T13:23:00;11.07;;;2.90;;
5458;SDS011;2752;49.992;8.422;2024-01-16T13:25:28;10.67;;;3.43;;
5458;SDS011;2752;49.992;8.422;2024-01-16T13:27:55;10.30;;;4.00;;
5458;SDS011;2752;49.992;8.422;2024-01-16T13:30:22;10.10;;;3.50;;
5458;SDS011;2752;49.992;8.422;2024-01-16T13:32:49;6.03;;;3.10;;
5458;SDS011;2752;49.992;8.422;2024-01-16T13:35:16;8.03;;;3.90;;
5458;SDS011;2752;49.992;8.422;2024-01-16T13:37:44;7.63;;;3.83;;
5458;SDS011;2752;49.992;8.422;2024-01-16T13:40:11;9.10;;;3.90;;
5458;SDS011;2752;49.992;8.422;2024-01-16T13:42:43;10.37;;;4.07;;
5458;SDS011;2752;49.992;8.422;2024-01-16T13:45:10;10.93;;;3.00;;
5458;SDS011;2752;49.992;8.422;2024-01-16T13:47:38;9.40;;;3.20;;
5458;SDS011;2752;49.992;8.422;2024-01-16T13:50:06;6.47;;;3.83;;
5458;SDS011;2752;49.992;8.422;2024-01-16T13:52:33;8.33;;;3.90;;
5458;SDS011;2752;49.992;8.422;2024-01-16T13:55:02;11.37;;;4.90;;
5458;SDS011;2752;49.992;8.422;2024-01-16T13:57:30;14.43;;;3.03;;
5458;SDS011;2752;49.992;8.422;2024-01-16T13:59:57;8.43;;;3.60;;
5458;SDS011;2752;49.992;8.422;2024-01-16T14:02:24;6.67;;;3.30;;
5458;SDS011;2752;49.992;8.422;2024-01-16T14:04:51;8.00;;;3.00;;
5458;SDS011;2752;49.992;8.422;2024-01-16T14:07:19;10.53;;;3.70;;
5458;SDS011;2752;49.992;8.422;2024-01-16T14:09:46;5.97;;;2.73;;
5458;SDS011;2752;49.992;8.422;2024-01-16T14:12:15;9.83;;;3.50;;
5458;SDS011;2752;49.992;8.422;2024-01-16T14:14:44;5.53;;;3.30;;
5458;SDS011;2752;49.992;8.422;2024-01-16T14:17:12;9.13;;;4.20;;
5458;SDS011;2752;49.992;8.422;2024-01-16T14:19:39;6.53;;;3.63;;
5458;SDS011;2752;49.992;8.422;2024-01-16T14:22:07;9.50;;;3.57;;
5458;SDS011;2752;49.992;8.422;2024-01-16T14:24:34;14.00;;;2.43;;
5458;SDS011;2752;49.992;8.422;2024-01-16T14:27:02;4.87;;;3.30;;
5458;SDS011;2752;49.992;8.422;2024-01-16T14:29:31;12.77;;;3.97;;
5458;SDS011;2752;49.992;8.422;2024-01-16T14:31:59;6.57;;;3.30;;
5458;SDS011;2752;49.992;8.422;2024-01-16T14:34:26;5.13;;;3.00;;
5458;SDS011;2752;49.992;8.422;2024-01-16T14:36:53;5.63;;;2.57;;
5458;SDS011;2752;49.992;8.422;2024-01-16T14:39:20;5.47;;;3.20;;
5458;SDS011;2752;49.992;8.422;2024-01-16T14:41:49;6.93;;;2.97;;
5458;SDS011;2752;49.992;8.422;2024-01-16T14:44:17;9.77;;;3.00;;
5458;SDS011;2752;49.992;8.422;2024-01-16T14:46:45;4.00;;;2.33;;
5458;SDS011;2752;49.992;8.422;2024-01-16T14:49:12;9.60;;;4.00;;
5458;SDS011;2752;49.992;8.422;2024-01-16T14:51:39;6.93;;;2.97;;
5458;SDS011;2752;49.992;8.422;2024-01-16T14:54:06;5.40;;;3.00;;
5458;SDS011;2752;49.992;8.422;2024-01-16T14:56:33;5.20;;;2.87;;
5458;SDS011;2752;49.992;8.422;2024-01-16T14:59:01;6.60;;;2.73;;
5458;SDS011;2752;49.992;8.422;2024-01-16T15:01:28;6.90;;;2.80;;
5458;SDS011;2752;49.992;8.422;2024-01-16T15:03:56;3.27;;;2.17;;
5458;SDS011;2752;49.992;8.422;2024-01-16T15:06:24;5.87;;;2.20;;
5458;SDS011;2752;49.992;8.422;2024-01-16T15:08:51;5.77;;;2.17;;
5458;SDS011;2752;49.992;8.422;2024-01-16T15:11:18;6.40;;;3.63;;
5458;SDS011;2752;49.992;8.422;2024-01-16T15:13:45;4.93;;;3.00;;
5458;SDS011;2752;49.992;8.422;2024-01-16T15:16:14;5.83;;;2.80;;
5458;SDS011;2752;49.992;8.422;2024-01-16T15:18:43;5.90;;;2.97;;
5458;SDS011;2752;49.992;8.422;2024-01-16T15:21:11;16.40;;;2.83;;